createdAt,value
2022-08-16T00:01:34.233Z,16.80
2022-08-16T00:04:10.978Z,16.83
2022-08-16T00:06:44.025Z,16.84
2022-08-16T00:09:14.276Z,16.90
2022-08-16T00:11:46.172Z,16.90
2022-08-16T00:14:20.021Z,16.95
2022-08-16T00:17:01.135Z,16.93
2022-08-16T00:19:42.243Z,16.90
2022-08-16T00:22:15.281Z,16.90
2022-08-16T00:24:47.084Z,16.90
2022-08-16T00:27:21.788Z,16.93
2022-08-16T00:30:08.504Z,17.00
2022-08-16T00:32:46.092Z,17.02
2022-08-16T00:35:21.032Z,16.99
2022-08-16T00:37:57.095Z,17.02
2022-08-16T00:40:43.892Z,16.97
2022-08-16T00:43:40.751Z,17.04
2022-08-16T00:46:34.298Z,17.06
2022-08-16T00:49:17.719Z,17.08
2022-08-16T00:51:55.184Z,17.08
2022-08-16T00:54:29.810Z,17.08
2022-08-16T00:57:04.710Z,17.07
2022-08-16T00:59:37.161Z,16.99
2022-08-16T01:02:31.750Z,16.99
2022-08-16T01:05:10.590Z,17.00
2022-08-16T01:07:51.712Z,16.99
2022-08-16T01:10:32.248Z,16.95
2022-08-16T01:13:15.256Z,16.99
2022-08-16T01:15:52.650Z,16.94
2022-08-16T01:18:39.781Z,16.97
2022-08-16T01:21:22.520Z,16.94
2022-08-16T01:24:52.017Z,16.91
2022-08-16T01:27:23.777Z,16.90
2022-08-16T01:30:29.775Z,16.91
2022-08-16T01:33:14.548Z,16.97
2022-08-16T01:36:09.341Z,16.95
2022-08-16T01:38:49.272Z,16.94
2022-08-16T01:41:31.922Z,17.00
2022-08-16T01:44:05.607Z,16.99
2022-08-16T01:46:41.044Z,16.95
2022-08-16T01:49:21.599Z,17.00
2022-08-16T01:51:58.649Z,16.99
2022-08-16T01:55:02.491Z,17.00
2022-08-16T01:57:33.285Z,17.00
2022-08-16T02:00:18.980Z,17.00
2022-08-16T02:02:52.283Z,17.00
2022-08-16T02:05:24.323Z,16.99
2022-08-16T02:07:54.139Z,16.99
2022-08-16T02:10:26.169Z,16.95
2022-08-16T02:13:00.533Z,16.93
2022-08-16T02:15:35.417Z,16.93
2022-08-16T02:18:06.363Z,16.91
2022-08-16T02:20:48.563Z,16.95
2022-08-16T02:23:19.368Z,16.99
2022-08-16T02:25:52.634Z,16.97
2022-08-16T02:28:27.347Z,16.99
2022-08-16T02:31:01.019Z,16.99
2022-08-16T02:33:44.694Z,17.02
2022-08-16T02:36:47.914Z,17.02
2022-08-16T02:39:23.087Z,17.00
2022-08-16T02:41:55.410Z,17.00
2022-08-16T02:44:28.580Z,17.03
2022-08-16T02:46:59.649Z,17.02
2022-08-16T02:50:25.831Z,17.02
2022-08-16T02:52:24.795Z,17.06
2022-08-16T02:55:06.855Z,17.03
2022-08-16T02:57:42.550Z,17.03
2022-08-16T03:00:33.924Z,17.02
2022-08-16T03:03:10.566Z,17.03
2022-08-16T03:05:40.694Z,17.04
2022-08-16T03:08:50.618Z,17.00
2022-08-16T03:11:03.502Z,17.03
2022-08-16T03:13:39.997Z,17.00
2022-08-16T03:16:32.945Z,17.00
2022-08-16T03:19:04.362Z,16.97
2022-08-16T03:21:38.063Z,16.97
2022-08-16T03:24:29.107Z,17.00
2022-08-16T03:27:03.550Z,17.02
2022-08-16T03:29:35.441Z,17.00
2022-08-16T03:32:07.532Z,16.99
2022-08-16T03:34:37.933Z,17.04
2022-08-16T03:37:07.822Z,17.04
2022-08-16T03:39:42.791Z,17.04
2022-08-16T03:42:20.602Z,17.03
2022-08-16T03:45:03.490Z,17.03
2022-08-16T03:47:37.649Z,16.95
2022-08-16T03:50:25.702Z,16.95
2022-08-16T03:53:03.138Z,16.91
2022-08-16T03:55:45.432Z,16.87
2022-08-16T03:58:17.678Z,16.84
2022-08-16T04:00:47.714Z,16.84
2022-08-16T04:03:34.340Z,16.74
2022-08-16T04:06:07.485Z,16.72
2022-08-16T04:08:44.200Z,16.63
2022-08-16T04:11:17.262Z,16.59
2022-08-16T04:14:00.813Z,16.52
2022-08-16T04:16:46.346Z,16.49
2022-08-16T04:19:45.605Z,16.44
2022-08-16T04:22:22.318Z,16.45
2022-08-16T04:25:04.348Z,16.45
2022-08-16T04:27:55.871Z,16.44
2022-08-16T04:30:34.996Z,16.42
2022-08-16T04:33:07.507Z,16.39
2022-08-16T04:35:41.723Z,16.35
2022-08-16T04:38:20.959Z,16.35
2022-08-16T04:40:54.652Z,16.42
2022-08-16T04:43:24.931Z,16.38
2022-08-16T04:46:00.302Z,16.35
2022-08-16T04:48:35.581Z,16.30
2022-08-16T04:51:12.757Z,16.24
2022-08-16T04:53:46.531Z,16.18
2022-08-16T04:56:19.878Z,16.14
2022-08-16T04:58:52.345Z,16.14
2022-08-16T05:01:55.965Z,16.14
2022-08-16T05:04:20.074Z,16.15
2022-08-16T05:06:52.788Z,16.19
2022-08-16T05:09:30.325Z,16.18
2022-08-16T05:12:07.423Z,16.15
2022-08-16T05:14:46.367Z,16.08
2022-08-16T05:17:35.214Z,16.09
2022-08-16T05:20:35.234Z,16.08
2022-08-16T05:23:02.814Z,16.28
2022-08-16T05:25:41.144Z,16.44
2022-08-16T05:28:20.072Z,16.56
2022-08-16T05:30:56.081Z,16.59
2022-08-16T05:33:29.451Z,16.55
2022-08-16T05:36:03.883Z,16.55
2022-08-16T05:38:44.680Z,16.53
2022-08-16T05:41:18.748Z,16.53
2022-08-16T05:43:49.188Z,16.53
2022-08-16T05:46:29.747Z,16.53
2022-08-16T05:49:10.046Z,16.56
2022-08-16T05:51:48.495Z,16.59
2022-08-16T05:54:25.943Z,16.57
2022-08-16T05:57:00.196Z,16.56
2022-08-16T05:59:31.432Z,16.55
2022-08-16T06:02:01.960Z,16.52
2022-08-16T06:04:44.836Z,16.48
2022-08-16T06:07:24.575Z,16.49
2022-08-16T06:10:08.088Z,16.53
2022-08-16T06:12:41.357Z,16.55
2022-08-16T06:15:18.145Z,16.49
2022-08-16T06:17:51.649Z,16.49
2022-08-16T06:20:34.845Z,16.48
2022-08-16T06:23:16.969Z,16.46
2022-08-16T06:26:04.045Z,16.41
2022-08-16T06:28:44.700Z,16.45
2022-08-16T06:31:24.953Z,16.53
2022-08-16T06:33:57.220Z,16.63
2022-08-16T06:36:32.259Z,16.69
2022-08-16T06:39:28.243Z,16.67
2022-08-16T06:42:11.684Z,16.67
2022-08-16T06:45:14.025Z,16.73
2022-08-16T06:47:56.221Z,16.73
2022-08-16T06:50:30.111Z,16.77
2022-08-16T06:53:08.569Z,16.80
2022-08-16T06:55:49.919Z,16.84
2022-08-16T06:58:31.922Z,16.81
2022-08-16T07:01:09.786Z,16.83
2022-08-16T07:03:55.457Z,16.88
2022-08-16T07:06:33.737Z,16.90
2022-08-16T07:09:12.427Z,16.91
2022-08-16T07:11:51.615Z,16.93
2022-08-16T07:14:35.239Z,16.51
2022-08-16T07:17:11.462Z,16.11
2022-08-16T07:20:30.324Z,15.70
2022-08-16T07:22:59.121Z,15.35
2022-08-16T07:25:40.275Z,15.20
2022-08-16T07:28:20.960Z,15.02
2022-08-16T07:30:58.205Z,14.82
2022-08-16T07:33:51.782Z,14.69
2022-08-16T07:36:29.115Z,14.60
2022-08-16T07:39:01.451Z,14.51
2022-08-16T07:41:37.329Z,14.48
2022-08-16T07:44:15.432Z,14.45
2022-08-16T07:46:55.550Z,14.41
2022-08-16T07:49:32.582Z,14.36
2022-08-16T07:52:18.989Z,14.30
2022-08-16T07:54:53.364Z,14.24
2022-08-16T07:57:26.257Z,14.19
2022-08-16T07:59:57.505Z,14.14
2022-08-16T08:02:30.255Z,14.10
2022-08-16T08:05:03.333Z,14.08
2022-08-16T08:07:33.868Z,14.06
2022-08-16T08:10:11.050Z,14.03
2022-08-16T08:12:43.743Z,14.02
2022-08-16T08:15:25.281Z,14.02
2022-08-16T08:18:29.237Z,14.02
2022-08-16T08:20:59.301Z,14.05
2022-08-16T08:23:42.666Z,14.00
2022-08-16T08:26:16.900Z,14.03
2022-08-16T08:28:49.089Z,14.02
2022-08-16T08:31:20.617Z,14.06
2022-08-16T08:33:51.830Z,14.03
2022-08-16T08:36:32.895Z,14.06
2022-08-16T08:39:16.775Z,14.06
2022-08-16T08:41:51.385Z,14.05
2022-08-16T08:44:29.431Z,14.09
2022-08-16T08:47:12.142Z,14.09
2022-08-16T08:49:50.281Z,14.09
2022-08-16T08:52:34.460Z,14.09
2022-08-16T08:55:12.813Z,14.12
2022-08-16T08:57:49.346Z,14.17
2022-08-16T09:00:51.222Z,14.16
2022-08-16T09:03:23.645Z,14.16
2022-08-16T09:05:59.094Z,14.13
2022-08-16T09:08:35.026Z,14.08
2022-08-16T09:11:09.159Z,14.03
2022-08-16T09:13:48.336Z,14.08
2022-08-16T09:17:01.109Z,14.06
2022-08-16T09:19:11.634Z,13.95
2022-08-16T09:21:41.756Z,13.89
2022-08-16T09:24:46.370Z,13.86
2022-08-16T09:27:04.395Z,13.86
2022-08-16T09:29:45.409Z,13.86
2022-08-16T09:32:28.767Z,13.89
2022-08-16T09:35:02.581Z,13.87
2022-08-16T09:37:36.743Z,13.95
2022-08-16T09:40:32.099Z,13.82
2022-08-16T09:43:01.826Z,13.80
2022-08-16T09:45:34.227Z,13.78
2022-08-16T09:48:08.707Z,13.76
2022-08-16T09:50:40.860Z,13.78
2022-08-16T09:53:17.301Z,13.76
2022-08-16T09:55:50.700Z,13.73
2022-08-16T09:58:41.599Z,13.79
2022-08-16T10:01:15.570Z,13.85
2022-08-16T10:04:02.179Z,13.82
2022-08-16T10:06:35.117Z,13.83
2022-08-16T10:09:11.348Z,13.83
2022-08-16T10:12:11.470Z,13.83
2022-08-16T10:14:49.149Z,13.82
2022-08-16T10:17:18.442Z,13.83
2022-08-16T10:19:50.371Z,13.80
2022-08-16T10:22:22.930Z,13.80
2022-08-16T10:24:56.120Z,13.83
2022-08-16T10:27:48.552Z,13.90
2022-08-16T10:30:25.740Z,13.89
2022-08-16T10:32:56.636Z,13.89
2022-08-16T10:35:33.124Z,13.99
2022-08-16T10:38:06.607Z,13.92
2022-08-16T10:40:37.242Z,13.87
2022-08-16T10:43:08.419Z,13.89
2022-08-16T10:45:59.756Z,13.83
2022-08-16T10:48:32.176Z,13.87
2022-08-16T10:51:03.710Z,13.80
2022-08-16T10:53:37.926Z,13.76
2022-08-16T10:56:49.509Z,13.79
2022-08-16T11:08:00.894Z,13.85
2022-08-16T11:13:58.253Z,13.90
2022-08-16T11:17:00.681Z,13.96
2022-08-16T11:19:06.409Z,14.02
2022-08-16T11:24:41.891Z,14.12
2022-08-16T11:27:20.494Z,14.12
2022-08-16T11:29:58.777Z,14.08
2022-08-16T11:32:32.173Z,14.03
2022-08-16T11:35:13.982Z,14.00
2022-08-16T11:38:47.510Z,14.12
2022-08-16T11:40:53.666Z,14.13
2022-08-16T11:43:26.552Z,14.14
2022-08-16T11:46:01.449Z,14.06
2022-08-16T11:48:49.776Z,14.02
2022-08-16T11:51:19.553Z,13.96
2022-08-16T11:53:48.802Z,13.95
2022-08-16T11:56:28.569Z,13.96
2022-08-16T11:59:08.653Z,13.98
2022-08-16T12:01:44.565Z,14.00
2022-08-16T12:04:25.965Z,14.03
2022-08-16T12:06:55.842Z,13.96
2022-08-16T12:09:29.577Z,13.98
2022-08-16T12:12:02.862Z,14.02
2022-08-16T12:14:37.696Z,14.10
2022-08-16T12:17:08.962Z,14.13
2022-08-16T12:19:39.415Z,14.20
2022-08-16T12:22:19.472Z,14.17
2022-08-16T12:24:51.208Z,14.12
2022-08-16T12:27:25.396Z,14.14
2022-08-16T12:29:58.318Z,14.16
2022-08-16T12:32:41.583Z,14.16
2022-08-16T12:35:22.362Z,14.14
2022-08-16T12:37:52.999Z,14.14
2022-08-16T12:40:30.127Z,14.12
2022-08-16T12:43:02.949Z,14.09
2022-08-16T12:45:35.998Z,14.09
2022-08-16T12:48:33.866Z,14.12
2022-08-16T12:51:13.743Z,14.19
2022-08-16T12:53:52.936Z,14.26
2022-08-16T12:56:25.579Z,14.19
2022-08-16T12:58:57.202Z,14.20
2022-08-16T13:01:30.646Z,14.19
2022-08-16T13:04:12.255Z,14.29
2022-08-16T13:06:52.330Z,14.26
2022-08-16T13:09:29.056Z,14.31
2022-08-16T13:12:21.043Z,14.24
2022-08-16T13:14:53.409Z,14.21
2022-08-16T13:17:29.712Z,14.16
2022-08-16T13:20:11.495Z,14.17
2022-08-16T13:22:45.812Z,14.13
2022-08-16T13:25:21.449Z,14.20
2022-08-16T13:28:03.019Z,14.27
2022-08-16T13:30:43.663Z,14.31
2022-08-16T13:33:24.809Z,14.37
2022-08-16T13:36:00.361Z,14.38
2022-08-16T13:38:37.055Z,14.37
2022-08-16T13:41:11.937Z,14.47
2022-08-16T13:43:43.160Z,14.45
2022-08-16T13:46:13.077Z,14.63
2022-08-16T13:48:44.917Z,14.65
2022-08-16T13:51:21.154Z,14.72
2022-08-16T13:54:02.543Z,14.84
2022-08-16T13:56:37.953Z,14.71
2022-08-16T13:59:20.589Z,14.75
2022-08-16T14:01:59.741Z,14.82
2022-08-16T14:04:35.326Z,14.87
2022-08-16T14:07:10.572Z,14.92
2022-08-16T14:09:41.149Z,14.78
2022-08-16T14:12:26.765Z,14.72
2022-08-16T14:14:57.762Z,14.85
2022-08-16T14:17:29.040Z,15.09
2022-08-16T14:20:01.233Z,15.16
2022-08-16T14:22:39.908Z,15.18
2022-08-16T14:25:20.146Z,15.23
2022-08-16T14:27:54.536Z,15.30
2022-08-16T14:30:25.774Z,15.46
2022-08-16T14:32:57.213Z,15.42
2022-08-16T14:35:49.378Z,15.50
2022-08-16T14:38:23.979Z,15.63
2022-08-16T14:40:55.290Z,15.66
2022-08-16T14:43:29.839Z,15.57
2022-08-16T14:46:01.011Z,15.56
2022-08-16T14:48:32.015Z,15.49
2022-08-16T14:51:03.850Z,15.37
2022-08-16T14:53:38.023Z,15.53
2022-08-16T14:56:08.192Z,15.74
2022-08-16T14:58:48.094Z,15.81
2022-08-16T15:01:18.776Z,15.71
2022-08-16T15:03:49.464Z,15.61
2022-08-16T15:06:25.238Z,15.60
2022-08-16T15:08:55.190Z,15.66
2022-08-16T15:11:25.019Z,15.61
2022-08-16T15:13:56.452Z,15.53
2022-08-16T15:16:28.876Z,15.61
2022-08-16T15:19:02.533Z,15.60
2022-08-16T15:21:33.063Z,15.60
2022-08-16T15:24:05.542Z,15.76
2022-08-16T15:26:45.179Z,15.93
2022-08-16T15:29:17.149Z,15.85
2022-08-16T15:31:48.334Z,15.74
2022-08-16T15:34:21.858Z,15.73
2022-08-16T15:36:55.919Z,15.78
2022-08-16T15:39:35.555Z,15.90
2022-08-16T15:42:11.984Z,16.46
2022-08-16T15:44:58.616Z,16.69
2022-08-16T15:47:29.409Z,16.66
2022-08-16T15:49:59.258Z,16.46
2022-08-16T15:52:36.707Z,16.62
2022-08-16T15:55:24.049Z,16.69
2022-08-16T15:58:00.990Z,16.91
2022-08-16T16:00:53.262Z,16.90
2022-08-16T16:03:27.012Z,16.76
2022-08-16T16:06:02.647Z,16.70
2022-08-16T16:08:33.565Z,16.76
2022-08-16T16:11:06.698Z,16.72
2022-08-16T16:13:37.348Z,16.59
2022-08-16T16:16:16.590Z,16.41
2022-08-16T16:18:50.387Z,16.41
2022-08-16T16:21:22.366Z,16.25
2022-08-16T16:23:57.963Z,15.90
2022-08-16T16:26:33.695Z,15.76
2022-08-16T16:29:10.703Z,15.88
2022-08-16T16:31:59.266Z,15.94
2022-08-16T16:34:32.312Z,15.94
2022-08-16T16:37:05.744Z,15.94
2022-08-16T16:39:40.173Z,15.87
2022-08-16T16:42:29.118Z,16.11
2022-08-16T16:45:02.363Z,16.29
2022-08-16T16:47:41.764Z,16.45
2022-08-16T16:50:17.187Z,16.60
2022-08-16T16:52:49.411Z,16.55
2022-08-16T16:55:21.850Z,16.59
2022-08-16T16:58:18.169Z,16.57
2022-08-16T17:01:03.829Z,16.72
2022-08-16T17:03:34.216Z,16.79
2022-08-16T17:06:09.466Z,16.60
2022-08-16T17:08:41.497Z,16.24
2022-08-16T17:11:13.447Z,16.06
2022-08-16T17:13:46.207Z,16.18
2022-08-16T17:16:18.896Z,16.30
2022-08-16T17:19:15.024Z,16.29
2022-08-16T17:21:42.165Z,16.22
2022-08-16T17:24:17.439Z,16.16
2022-08-16T17:26:49.952Z,16.08
2022-08-16T17:29:30.763Z,16.12
2022-08-16T17:32:32.496Z,16.24
2022-08-16T17:34:52.092Z,16.25
2022-08-16T17:39:27.265Z,16.41
2022-08-16T17:40:25.734Z,16.80
2022-08-16T17:43:05.163Z,17.23
2022-08-16T17:45:34.937Z,17.78
2022-08-16T17:48:04.853Z,17.68
2022-08-16T17:50:35.135Z,18.06
2022-08-16T17:53:07.223Z,17.94
2022-08-16T17:55:39.226Z,17.73
2022-08-16T17:58:22.685Z,17.35
2022-08-16T18:01:00.817Z,17.21
2022-08-16T18:04:03.118Z,17.35
2022-08-16T18:06:28.976Z,17.62
2022-08-16T18:09:03.528Z,17.75
2022-08-16T18:11:41.215Z,17.92
2022-08-16T18:14:14.131Z,17.78
2022-08-16T18:16:47.083Z,17.86
2022-08-16T18:19:18.114Z,17.76
2022-08-16T18:22:06.102Z,18.78
2022-08-16T18:24:37.246Z,18.23
2022-08-16T18:27:24.908Z,17.79
2022-08-16T18:29:57.357Z,17.62
2022-08-16T18:32:29.045Z,17.15
2022-08-16T18:34:59.264Z,16.94
2022-08-16T18:37:29.029Z,16.77
2022-08-16T18:39:58.819Z,16.41
2022-08-16T18:42:28.834Z,16.38
2022-08-16T18:44:58.822Z,16.29
2022-08-16T18:47:28.581Z,16.29
2022-08-16T18:50:00.806Z,16.25
2022-08-16T18:52:30.857Z,16.30
2022-08-16T18:55:13.990Z,16.26
2022-08-16T18:57:45.079Z,16.14
2022-08-16T19:00:17.205Z,16.16
2022-08-16T19:02:59.050Z,16.04
2022-08-16T19:05:33.061Z,16.02
2022-08-16T19:08:03.795Z,15.98
2022-08-16T19:10:37.578Z,15.95
2022-08-16T19:13:13.965Z,16.05
2022-08-16T19:15:46.133Z,16.11
2022-08-16T19:18:16.729Z,16.11
2022-08-16T19:20:47.674Z,16.19
2022-08-16T19:23:23.195Z,16.33
2022-08-16T19:26:01.235Z,16.26
2022-08-16T19:28:51.183Z,16.19
2022-08-16T19:31:32.411Z,16.08
2022-08-16T19:34:05.016Z,16.00
2022-08-16T19:36:37.844Z,15.94
2022-08-16T19:39:14.927Z,15.88
2022-08-16T19:41:51.956Z,15.84
2022-08-16T19:44:24.786Z,15.74
2022-08-16T19:46:54.909Z,15.77
2022-08-16T19:49:24.615Z,15.74
2022-08-16T19:51:54.352Z,15.78
2022-08-16T19:54:24.121Z,15.84
2022-08-16T19:56:53.843Z,15.88
2022-08-16T19:59:39.472Z,15.87
2022-08-16T20:02:25.621Z,15.93
2022-08-16T20:05:07.971Z,15.91
2022-08-16T20:07:38.136Z,16.08
2022-08-16T20:10:09.905Z,16.02
2022-08-16T20:12:41.225Z,16.06
2022-08-16T20:15:17.401Z,16.15
2022-08-16T20:17:49.410Z,16.05
2022-08-16T20:20:23.733Z,16.02
2022-08-16T20:22:57.014Z,15.91
2022-08-16T20:25:31.266Z,15.84
2022-08-16T20:28:03.291Z,15.74
2022-08-16T20:30:33.065Z,15.73
2022-08-16T20:33:02.998Z,15.68
2022-08-16T20:35:32.722Z,15.67
2022-08-16T20:38:05.081Z,15.57
2022-08-16T20:40:35.881Z,15.58
2022-08-16T20:43:05.860Z,15.54
2022-08-16T20:45:36.348Z,15.49
2022-08-16T20:48:07.477Z,15.43
2022-08-16T20:50:38.124Z,15.30
2022-08-16T20:53:09.259Z,15.15
2022-08-16T20:55:41.161Z,15.06
2022-08-16T20:58:11.791Z,14.99
2022-08-16T21:00:42.302Z,14.89
2022-08-16T21:03:13.840Z,14.82
2022-08-16T21:05:45.327Z,14.78
2022-08-16T21:08:50.407Z,14.67
2022-08-16T21:11:09.021Z,14.69
2022-08-16T21:13:42.630Z,14.61
2022-08-16T21:16:13.032Z,14.48
2022-08-16T21:18:42.875Z,14.41
2022-08-16T21:21:13.274Z,14.36
2022-08-16T21:23:43.023Z,14.26
2022-08-16T21:26:12.325Z,14.03
2022-08-16T21:28:43.453Z,13.79
2022-08-16T21:31:15.787Z,13.63
2022-08-16T21:33:54.160Z,13.68
2022-08-16T21:36:35.812Z,13.61
2022-08-16T21:39:07.781Z,13.52
2022-08-16T21:41:39.668Z,13.37
2022-08-16T21:44:09.786Z,13.27
2022-08-16T21:46:39.583Z,13.28
2022-08-16T21:49:08.996Z,13.31
2022-08-16T21:51:38.731Z,13.38
2022-08-16T21:54:08.077Z,13.51
2022-08-16T21:56:37.737Z,13.55
2022-08-16T21:59:11.969Z,13.54
2022-08-16T22:01:42.918Z,13.58
2022-08-16T22:04:37.678Z,13.69
2022-08-16T22:07:05.403Z,13.72
2022-08-16T22:09:34.925Z,13.78
2022-08-16T22:12:04.715Z,13.80
2022-08-16T22:14:34.786Z,13.92
2022-08-16T22:17:04.585Z,14.00
2022-08-16T22:19:34.977Z,14.03
2022-08-16T22:22:04.263Z,14.05
2022-08-16T22:24:34.492Z,14.05
2022-08-16T22:27:04.315Z,14.10
2022-08-16T22:29:33.636Z,14.13
2022-08-16T22:32:06.294Z,14.13
2022-08-16T22:34:36.738Z,14.09
2022-08-16T22:37:06.606Z,14.02
2022-08-16T22:39:36.477Z,13.99
2022-08-16T22:42:10.759Z,13.95
2022-08-16T22:44:46.162Z,13.95
2022-08-16T22:47:17.091Z,13.96
2022-08-16T22:49:48.380Z,13.98
2022-08-16T22:52:55.560Z,14.03
2022-08-16T22:55:20.960Z,14.02
2022-08-16T22:57:56.541Z,14.00
2022-08-16T23:00:29.894Z,14.06
2022-08-16T23:03:35.099Z,14.05
2022-08-16T23:06:11.673Z,13.96
2022-08-16T23:08:46.740Z,13.92
2022-08-16T23:11:24.289Z,13.93
2022-08-16T23:14:00.300Z,13.89
2022-08-16T23:16:53.288Z,13.96
2022-08-16T23:19:28.358Z,14.02
2022-08-16T23:21:58.695Z,14.08
2022-08-16T23:24:56.189Z,14.06
2022-08-16T23:27:27.042Z,14.08
2022-08-16T23:29:56.890Z,14.09
2022-08-16T23:32:26.751Z,14.06
2022-08-16T23:34:56.753Z,14.09
2022-08-16T23:37:28.611Z,14.10
2022-08-16T23:39:57.924Z,14.09
2022-08-16T23:42:53.395Z,14.09
2022-08-16T23:45:20.449Z,14.08
2022-08-16T23:47:50.956Z,14.05
2022-08-16T23:50:22.687Z,14.06
2022-08-16T23:53:02.079Z,14.06
2022-08-16T23:55:38.618Z,14.02
2022-08-16T23:58:09.707Z,13.99
